createdAt,value
2022-08-05T00:00:02.010Z,72263.09
2022-08-05T00:00:46.210Z,72267.09
2022-08-05T00:01:27.718Z,72265.09
2022-08-05T00:02:07.859Z,72259.13
2022-08-05T00:02:49.108Z,72265.09
2022-08-05T00:03:24.239Z,72263.09
2022-08-05T00:04:00.195Z,72267.09
2022-08-05T00:04:32.554Z,72261.09
2022-08-05T00:05:07.116Z,72259.13
2022-08-05T00:06:22.070Z,72267.09
2022-08-05T00:06:54.395Z,72263.09
2022-08-05T00:07:59.732Z,72263.09
2022-08-05T00:08:35.694Z,72265.09
2022-08-05T00:09:13.027Z,72267.09
2022-08-05T00:09:48.112Z,72259.13
2022-08-05T00:10:20.679Z,72259.13
2022-08-05T00:11:02.781Z,72257.13
2022-08-05T00:11:48.393Z,72259.13
2022-08-05T00:12:24.782Z,72263.09
2022-08-05T00:12:59.823Z,72259.13
2022-08-05T00:13:39.368Z,72263.09
2022-08-05T00:14:17.027Z,72255.13
2022-08-05T00:14:51.905Z,72255.13
2022-08-05T00:15:56.100Z,72259.13
2022-08-05T00:16:36.122Z,72255.13
2022-08-05T00:17:18.797Z,72255.13
2022-08-05T00:18:03.521Z,72251.13
2022-08-05T00:18:36.042Z,72253.13
2022-08-05T00:19:12.931Z,72253.13
2022-08-05T00:19:45.808Z,72255.13
2022-08-05T00:20:35.400Z,72255.13
2022-08-05T00:21:10.426Z,72253.13
2022-08-05T00:21:43.490Z,72251.13
2022-08-05T00:22:17.957Z,72249.13
2022-08-05T00:22:57.481Z,72251.13
2022-08-05T00:23:46.408Z,72247.13
2022-08-05T00:24:31.230Z,72247.13
2022-08-05T00:25:08.411Z,72243.16
2022-08-05T00:25:46.099Z,72245.13
2022-08-05T00:26:19.921Z,72247.13
2022-08-05T00:26:55.114Z,72247.13
2022-08-05T00:27:36.280Z,72247.13
2022-08-05T00:28:12.661Z,72247.13
2022-08-05T00:28:49.217Z,72241.16
2022-08-05T00:29:25.387Z,72239.16
2022-08-05T00:30:03.362Z,72243.16
2022-08-05T00:30:35.983Z,72239.16
2022-08-05T00:31:08.795Z,72235.16
2022-08-05T00:32:10.618Z,72243.16
2022-08-05T00:32:38.394Z,72245.13
2022-08-05T00:33:15.544Z,72247.13
2022-08-05T00:34:55.319Z,72243.16
2022-08-05T00:35:06.897Z,72239.16
2022-08-05T00:36:14.821Z,72251.13
2022-08-05T00:37:12.979Z,72241.16
2022-08-05T00:37:50.510Z,72239.16
2022-08-05T00:38:28.710Z,72245.13
2022-08-05T00:39:04.592Z,72239.16
2022-08-05T00:39:43.989Z,72243.16
2022-08-05T00:40:33.923Z,72239.16
2022-08-05T00:41:11.697Z,72239.16
2022-08-05T00:41:54.868Z,72239.16
2022-08-05T00:42:32.478Z,72239.16
2022-08-05T00:43:08.612Z,72239.16
2022-08-05T00:43:50.260Z,72239.16
2022-08-05T00:44:23.253Z,72239.16
2022-08-05T00:45:05.802Z,72241.16
2022-08-05T00:45:43.629Z,72243.16
2022-08-05T00:46:16.517Z,72241.16
2022-08-05T00:46:53.947Z,72247.13
2022-08-05T00:47:56.420Z,72245.13
2022-08-05T00:48:31.691Z,72243.16
2022-08-05T00:49:04.234Z,72241.16
2022-08-05T00:49:44.661Z,72245.13
2022-08-05T00:50:26.645Z,72247.13
2022-08-05T00:50:59.103Z,72243.16
2022-08-05T00:51:50.425Z,72241.16
2022-08-05T00:52:28.298Z,72245.13
2022-08-05T00:53:01.469Z,72243.16
2022-08-05T00:54:00.920Z,72241.16
2022-08-05T00:54:30.166Z,72247.13
2022-08-05T00:55:02.981Z,72241.16
2022-08-05T00:55:43.509Z,72247.13
2022-08-05T00:56:17.346Z,72247.13
2022-08-05T00:56:57.874Z,72249.13
2022-08-05T00:57:31.756Z,72249.13
2022-08-05T00:58:11.633Z,72251.13
2022-08-05T00:58:46.931Z,72251.13
2022-08-05T00:59:22.416Z,72247.13
2022-08-05T00:59:54.759Z,72249.13
2022-08-05T01:00:27.857Z,72247.13
2022-08-05T01:01:03.112Z,72251.13
2022-08-05T01:01:48.769Z,72251.13
2022-08-05T01:02:21.782Z,72247.13
2022-08-05T01:03:00.531Z,72247.13
2022-08-05T01:03:34.087Z,72251.13
2022-08-05T01:04:14.155Z,72255.13
2022-08-05T01:04:50.552Z,72251.13
2022-08-05T01:05:23.950Z,72251.13
2022-08-05T01:05:59.936Z,72247.13
2022-08-05T01:06:33.016Z,72251.13
2022-08-05T01:07:05.901Z,72249.13
2022-08-05T01:08:40.494Z,72251.13
2022-08-05T01:08:44.548Z,72245.13
2022-08-05T01:09:20.026Z,72247.13
2022-08-05T01:09:55.746Z,72249.13
2022-08-05T01:10:33.426Z,72251.13
2022-08-05T01:11:10.990Z,72251.13
2022-08-05T01:11:49.278Z,72251.13
2022-08-05T01:12:22.203Z,72249.13
2022-08-05T01:13:03.249Z,72247.13
2022-08-05T01:13:58.494Z,72247.13
2022-08-05T01:14:38.108Z,72251.13
2022-08-05T01:15:35.708Z,72249.13
2022-08-05T01:16:13.902Z,72247.13
2022-08-05T01:17:00.491Z,72251.13
2022-08-05T01:17:40.082Z,72257.13
2022-08-05T01:18:23.170Z,72253.13
2022-08-05T01:19:02.654Z,72251.13
2022-08-05T01:20:00.815Z,72255.13
2022-08-05T01:20:43.822Z,72249.13
2022-08-05T01:21:38.095Z,72247.13
2022-08-05T01:22:31.973Z,72251.13
2022-08-05T01:23:14.522Z,72251.13
2022-08-05T01:24:03.454Z,72247.13
2022-08-05T01:25:05.479Z,72245.13
2022-08-05T01:26:09.697Z,72243.16
2022-08-05T01:26:56.422Z,72245.13
2022-08-05T01:27:55.884Z,72243.16
2022-08-05T01:28:36.517Z,72239.16
2022-08-05T01:29:16.608Z,72247.13
2022-08-05T01:29:58.749Z,72247.13
2022-08-05T01:30:36.830Z,72245.13
2022-08-05T01:31:11.694Z,72245.13
2022-08-05T01:31:46.957Z,72247.13
2022-08-05T01:32:24.238Z,72251.13
2022-08-05T01:33:00.551Z,72245.13
2022-08-05T01:33:35.958Z,72247.13
2022-08-05T01:34:14.695Z,72247.13
2022-08-05T01:34:53.319Z,72243.16
2022-08-05T01:35:51.318Z,72247.13
2022-08-05T01:36:28.134Z,72247.13
2022-08-05T01:37:04.740Z,72245.13
2022-08-05T01:37:44.294Z,72251.13
2022-08-05T01:38:27.100Z,72249.13
2022-08-05T01:39:04.322Z,72249.13
2022-08-05T01:39:47.033Z,72249.13
2022-08-05T01:40:27.945Z,72247.13
2022-08-05T01:41:01.909Z,72249.13
2022-08-05T01:41:36.302Z,72251.13
2022-08-05T01:42:16.291Z,72251.13
2022-08-05T01:42:52.383Z,72251.13
2022-08-05T01:43:25.253Z,72251.13
2022-08-05T01:44:00.423Z,72247.13
2022-08-05T01:44:34.455Z,72251.13
2022-08-05T01:45:09.039Z,72251.13
2022-08-05T01:45:44.770Z,72251.13
2022-08-05T01:46:42.488Z,72251.13
2022-08-05T01:47:23.407Z,72251.13
2022-08-05T01:47:56.165Z,72251.13
2022-08-05T01:48:32.559Z,72247.13
2022-08-05T01:49:23.330Z,72251.13
2022-08-05T01:50:01.276Z,72251.13
2022-08-05T01:50:41.162Z,72251.13
2022-08-05T01:51:24.414Z,72249.13
2022-08-05T01:52:12.379Z,72245.13
2022-08-05T01:52:53.640Z,72247.13
2022-08-05T01:53:56.988Z,72251.13
2022-08-05T01:54:25.555Z,72251.13
2022-08-05T01:55:00.593Z,72239.16
2022-08-05T01:55:36.277Z,72247.13
2022-08-05T01:56:12.495Z,72249.13
2022-08-05T01:58:10.213Z,72247.13
2022-08-05T01:58:11.438Z,72249.13
2022-08-05T01:58:45.023Z,72249.13
2022-08-05T01:59:26.650Z,72249.13
2022-08-05T02:00:02.011Z,72247.13
2022-08-05T02:00:40.727Z,72251.13
2022-08-05T02:01:23.307Z,72251.13
2022-08-05T02:01:57.968Z,72255.13
2022-08-05T02:02:32.802Z,72255.13
2022-08-05T02:03:24.396Z,72255.13
2022-08-05T02:04:02.476Z,72257.13
2022-08-05T02:04:40.633Z,72255.13
2022-08-05T02:05:14.096Z,72251.13
2022-08-05T02:05:48.393Z,72253.13
2022-08-05T02:06:36.967Z,72259.13
2022-08-05T02:07:11.110Z,72255.13
2022-08-05T02:08:01.019Z,72251.13
2022-08-05T02:08:40.868Z,72255.13
2022-08-05T02:09:28.130Z,72261.09
2022-08-05T02:10:03.489Z,72259.13
2022-08-05T02:10:41.063Z,72259.13
2022-08-05T02:11:23.696Z,72265.09
2022-08-05T02:12:01.231Z,72259.13
2022-08-05T02:12:38.031Z,72263.09
2022-08-05T02:13:18.185Z,72259.13
2022-08-05T02:14:05.906Z,72259.13
2022-08-05T02:14:42.011Z,72259.13
2022-08-05T02:15:23.489Z,72259.13
2022-08-05T02:16:02.278Z,72263.09
2022-08-05T02:16:41.883Z,72261.09
2022-08-05T02:18:27.608Z,72259.13
2022-08-05T02:18:31.017Z,72263.09
2022-08-05T02:19:11.844Z,72255.13
2022-08-05T02:19:50.227Z,72255.13
2022-08-05T02:20:26.454Z,72255.13
2022-08-05T02:21:04.290Z,72249.13
2022-08-05T02:21:46.790Z,72255.13
2022-08-05T02:22:27.301Z,72249.13
2022-08-05T02:23:02.247Z,72251.13
2022-08-05T02:23:39.319Z,72249.13
2022-08-05T02:24:23.206Z,72247.13
2022-08-05T02:25:04.793Z,72253.13
2022-08-05T02:25:49.706Z,72251.13
2022-08-05T02:26:29.369Z,72247.13
2022-08-05T02:27:09.931Z,72251.13
2022-08-05T02:27:59.634Z,72255.13
2022-08-05T02:28:41.638Z,72251.13
2022-08-05T02:29:26.126Z,72255.13
2022-08-05T02:30:17.146Z,72251.13
2022-08-05T02:30:56.653Z,72253.13
2022-08-05T02:31:34.646Z,72259.13
2022-08-05T02:32:09.049Z,72259.13
2022-08-05T02:32:44.146Z,72255.13
2022-08-05T02:33:24.576Z,72259.13
2022-08-05T02:34:11.927Z,72261.09
2022-08-05T02:34:54.826Z,72263.09
2022-08-05T02:35:33.229Z,72263.09
2022-08-05T02:36:13.660Z,72261.09
2022-08-05T02:36:53.928Z,72267.09
2022-08-05T02:37:27.345Z,72263.09
2022-08-05T02:38:04.941Z,72267.09
2022-08-05T02:38:38.177Z,72263.09
2022-08-05T02:39:14.285Z,72267.09
2022-08-05T02:39:47.831Z,72267.09
2022-08-05T02:40:27.527Z,72267.09
2022-08-05T02:41:00.761Z,72267.09
2022-08-05T02:42:01.347Z,72267.09
2022-08-05T02:42:37.058Z,72267.09
2022-08-05T02:43:10.049Z,72269.09
2022-08-05T02:44:06.029Z,72263.09
2022-08-05T02:44:41.778Z,72269.09
2022-08-05T02:45:16.550Z,72263.09
2022-08-05T02:45:52.190Z,72267.09
2022-08-05T02:46:29.686Z,72263.09
2022-08-05T02:47:04.151Z,72265.09
2022-08-05T02:48:07.609Z,72265.09
2022-08-05T02:48:32.959Z,72263.09
2022-08-05T02:49:06.231Z,72259.13
2022-08-05T02:49:47.415Z,72259.13
2022-08-05T02:50:22.062Z,72261.09
2022-08-05T02:50:56.091Z,72255.13
2022-08-05T02:52:02.967Z,72255.13
2022-08-05T02:52:29.403Z,72255.13
2022-08-05T02:53:05.702Z,72259.13
2022-08-05T02:53:44.378Z,72255.13
2022-08-05T02:54:36.072Z,72259.13
2022-08-05T02:55:12.953Z,72255.13
2022-08-05T02:55:54.905Z,72257.13
2022-08-05T02:56:32.984Z,72259.13
2022-08-05T02:58:09.763Z,72257.13
2022-08-05T02:58:10.420Z,72259.13
2022-08-05T02:58:55.501Z,72255.13
2022-08-05T02:59:29.203Z,72267.09
2022-08-05T03:00:19.035Z,72265.09
2022-08-05T03:00:55.170Z,72265.09
2022-08-05T03:01:28.008Z,72267.09
2022-08-05T03:02:06.490Z,72267.09
2022-08-05T03:02:41.183Z,72265.09
2022-08-05T03:03:17.373Z,72267.09
2022-08-05T03:04:03.133Z,72273.09
2022-08-05T03:04:44.949Z,72273.09
2022-08-05T03:05:21.847Z,72273.09
2022-08-05T03:06:54.725Z,72275.06
2022-08-05T03:07:40.531Z,72277.06
2022-08-05T03:08:08.804Z,72273.09
2022-08-05T03:08:44.670Z,72279.06
2022-08-05T03:09:17.845Z,72279.06
2022-08-05T03:10:10.616Z,72279.06
2022-08-05T03:11:53.611Z,72279.06
2022-08-05T03:11:55.463Z,72277.06
2022-08-05T03:12:35.761Z,72283.06
2022-08-05T03:13:17.763Z,72273.09
2022-08-05T03:14:02.863Z,72277.06
2022-08-05T03:14:45.733Z,72279.06
2022-08-05T03:15:23.635Z,72275.06
2022-08-05T03:15:59.313Z,72273.09
2022-08-05T03:16:31.853Z,72277.06
2022-08-05T03:17:08.966Z,72271.09
2022-08-05T03:17:44.835Z,72275.06
2022-08-05T03:18:17.560Z,72275.06
2022-08-05T03:18:57.150Z,72277.06
2022-08-05T03:19:34.199Z,72277.06
2022-08-05T03:20:10.429Z,72275.06
2022-08-05T03:20:48.541Z,72271.09
2022-08-05T03:21:28.862Z,72271.09
2022-08-05T03:22:16.639Z,72275.06
2022-08-05T03:22:57.074Z,72271.09
2022-08-05T03:23:30.316Z,72271.09
2022-08-05T03:24:04.239Z,72275.06
2022-08-05T03:24:39.328Z,72281.06
2022-08-05T03:26:03.638Z,72279.06
2022-08-05T03:26:31.582Z,72279.06
2022-08-05T03:27:06.736Z,72283.06
2022-08-05T03:27:59.574Z,72281.06
2022-08-05T03:28:42.420Z,72281.06
2022-08-05T03:29:17.317Z,72283.06
2022-08-05T03:30:07.384Z,72287.06
2022-08-05T03:30:46.571Z,72285.06
2022-08-05T03:31:56.244Z,72287.06
2022-08-05T03:32:16.488Z,72289.03
2022-08-05T03:32:51.075Z,72287.06
2022-08-05T03:33:49.251Z,72283.06
2022-08-05T03:34:19.332Z,72283.06
2022-08-05T03:34:59.464Z,72283.06
2022-08-05T03:35:34.106Z,72279.06
2022-08-05T03:36:17.635Z,72283.06
2022-08-05T03:37:06.652Z,72283.06
2022-08-05T03:37:41.691Z,72281.06
2022-08-05T03:38:23.989Z,72283.06
2022-08-05T03:39:13.009Z,72281.06
2022-08-05T03:40:01.270Z,72283.06
2022-08-05T03:40:40.511Z,72283.06
2022-08-05T03:41:15.574Z,72287.06
2022-08-05T03:41:48.227Z,72287.06
2022-08-05T03:42:27.041Z,72287.06
2022-08-05T03:43:15.940Z,72287.06
2022-08-05T03:44:11.240Z,72283.06
2022-08-05T03:44:46.935Z,72289.03
2022-08-05T03:45:22.526Z,72285.06
2022-08-05T03:45:59.070Z,72287.06
2022-08-05T03:46:40.190Z,72291.03
2022-08-05T03:47:13.614Z,72289.03
2022-08-05T03:47:46.112Z,72289.03
2022-08-05T03:48:22.797Z,72293.03
2022-08-05T03:48:55.562Z,72291.03
2022-08-05T03:49:51.100Z,72289.03
2022-08-05T03:50:24.654Z,72289.03
2022-08-05T03:52:35.226Z,72295.03
2022-08-05T03:52:38.840Z,72287.06
2022-08-05T03:55:34.229Z,72285.06
2022-08-05T03:55:49.742Z,72285.06
2022-08-05T03:55:51.035Z,72283.06
2022-08-05T03:56:11.921Z,72287.06
2022-08-05T03:56:50.031Z,72287.06
2022-08-05T03:57:41.994Z,72287.06
2022-08-05T03:58:17.215Z,72297.03
2022-08-05T03:58:51.522Z,72293.03
2022-08-05T03:59:29.245Z,72291.03
2022-08-05T04:00:21.987Z,72287.06
2022-08-05T04:01:03.927Z,72287.06
2022-08-05T04:01:40.292Z,72287.06
2022-08-05T04:02:17.375Z,72289.03
2022-08-05T04:02:58.400Z,72291.03
2022-08-05T04:03:36.075Z,72287.06
2022-08-05T04:04:11.094Z,72287.06
2022-08-05T04:04:46.978Z,72287.06
2022-08-05T04:05:20.198Z,72291.03
2022-08-05T04:05:55.885Z,72291.03
2022-08-05T04:06:33.066Z,72291.03
2022-08-05T04:07:06.680Z,72289.03
2022-08-05T04:07:57.301Z,72293.03
2022-08-05T04:08:36.411Z,72291.03
2022-08-05T04:09:09.599Z,72291.03
2022-08-05T04:09:53.665Z,72291.03
2022-08-05T04:10:28.168Z,72287.06
2022-08-05T04:11:08.427Z,72293.03
2022-08-05T04:11:47.387Z,72289.03
2022-08-05T04:12:24.647Z,72289.03
2022-08-05T04:13:00.103Z,72287.06
2022-08-05T04:13:50.102Z,72285.06
2022-08-05T04:14:30.480Z,72287.06
2022-08-05T04:15:03.833Z,72293.03
2022-08-05T04:15:36.773Z,72287.06
2022-08-05T04:16:16.245Z,72287.06
2022-08-05T04:16:57.613Z,72291.03
2022-08-05T04:17:55.872Z,72283.06
2022-08-05T04:18:26.658Z,72283.06
2022-08-05T04:19:00.084Z,72283.06
2022-08-05T04:19:45.098Z,72283.06
2022-08-05T04:20:23.229Z,72283.06
2022-08-05T04:20:56.452Z,72287.06
2022-08-05T04:22:09.577Z,72283.06
2022-08-05T04:22:23.888Z,72287.06
2022-08-05T04:23:01.693Z,72285.06
2022-08-05T04:24:05.643Z,72283.06
2022-08-05T04:24:27.823Z,72283.06
2022-08-05T04:25:04.357Z,72291.03
2022-08-05T04:25:56.562Z,72287.06
2022-08-05T04:26:32.489Z,72283.06
2022-08-05T04:27:08.083Z,72291.03
2022-08-05T04:27:43.817Z,72297.03
2022-08-05T04:28:30.843Z,72291.03
2022-08-05T04:29:07.651Z,72291.03
2022-08-05T04:29:41.084Z,72293.03
2022-08-05T04:30:14.274Z,72293.03
2022-08-05T04:30:49.964Z,72299.03
2022-08-05T04:31:27.596Z,72301.03
2022-08-05T04:32:13.827Z,72303.03
2022-08-05T04:32:52.363Z,72311.00
2022-08-05T04:33:27.356Z,72307.00
2022-08-05T04:34:32.859Z,72309.00
2022-08-05T04:35:13.495Z,72313.00
2022-08-05T04:36:16.417Z,72313.00
2022-08-05T04:36:50.266Z,72311.00
2022-08-05T04:38:00.687Z,72309.00
2022-08-05T04:38:17.995Z,72311.00
2022-08-05T04:38:51.008Z,72307.00
2022-08-05T04:39:24.704Z,72307.00
2022-08-05T04:40:02.727Z,72307.00
2022-08-05T04:40:36.623Z,72311.00
2022-08-05T04:41:09.320Z,72309.00
2022-08-05T04:41:45.736Z,72295.03
2022-08-05T04:42:20.380Z,72281.06
2022-08-05T04:43:00.577Z,72271.09
2022-08-05T04:43:32.983Z,72271.09
2022-08-05T04:44:08.969Z,72259.13
2022-08-05T04:44:44.922Z,72255.13
2022-08-05T04:45:23.003Z,72255.13
2022-08-05T04:46:12.372Z,72251.13
2022-08-05T04:46:48.540Z,72247.13
2022-08-05T04:47:21.088Z,72247.13
2022-08-05T04:47:56.360Z,72247.13
2022-08-05T04:48:30.135Z,72243.16
2022-08-05T04:49:02.513Z,72247.13
2022-08-05T04:50:01.097Z,72247.13
2022-08-05T04:50:34.327Z,72243.16
2022-08-05T04:51:12.619Z,72247.13
2022-08-05T04:51:48.634Z,72245.13
2022-08-05T04:52:34.365Z,72259.13
2022-08-05T04:53:07.197Z,72255.13
2022-08-05T04:53:43.555Z,72255.13
2022-08-05T04:54:16.995Z,72259.13
2022-08-05T04:54:50.064Z,72257.13
2022-08-05T04:56:15.540Z,72255.13
2022-08-05T04:56:34.673Z,72265.09
2022-08-05T04:57:12.350Z,72255.13
2022-08-05T04:57:47.709Z,72255.13
2022-08-05T04:58:23.977Z,72255.13
2022-08-05T04:58:57.127Z,72251.13
2022-08-05T04:59:38.340Z,72251.13
2022-08-05T05:00:15.931Z,72247.13
2022-08-05T05:00:50.891Z,72251.13
2022-08-05T05:02:04.119Z,72251.13
2022-08-05T05:02:36.167Z,72249.13
2022-08-05T05:03:18.787Z,72245.13
2022-08-05T05:03:52.808Z,72245.13
2022-08-05T05:04:25.631Z,72247.13
2022-08-05T05:05:02.276Z,72247.13
2022-08-05T05:06:35.997Z,72251.13
2022-08-05T05:06:40.090Z,72255.13
2022-08-05T05:07:17.529Z,72257.13
2022-08-05T05:07:52.983Z,72259.13
2022-08-05T05:08:31.784Z,72259.13
2022-08-05T05:09:05.763Z,72259.13
2022-08-05T05:09:38.185Z,72261.09
2022-08-05T05:10:13.271Z,72263.09
2022-08-05T05:10:47.331Z,72259.13
2022-08-05T05:11:41.985Z,72259.13
2022-08-05T05:12:24.451Z,72263.09
2022-08-05T05:13:00.132Z,72263.09
2022-08-05T05:13:43.376Z,72263.09
2022-08-05T05:14:18.618Z,72263.09
2022-08-05T05:15:03.762Z,72259.13
2022-08-05T05:15:57.291Z,72255.13
2022-08-05T05:16:31.485Z,72253.13
2022-08-05T05:17:07.477Z,72255.13
2022-08-05T05:17:56.694Z,72255.13
2022-08-05T05:18:33.216Z,72259.13
2022-08-05T05:19:18.860Z,72265.09
2022-08-05T05:19:54.262Z,72267.09
2022-08-05T05:20:28.479Z,72269.09
2022-08-05T05:21:05.465Z,72265.09
2022-08-05T05:21:38.054Z,72271.09
2022-08-05T05:22:24.152Z,72267.09
2022-08-05T05:23:08.343Z,72269.09
2022-08-05T05:24:04.017Z,72271.09
2022-08-05T05:24:57.012Z,72275.06
2022-08-05T05:25:40.305Z,72275.06
2022-08-05T05:26:16.246Z,72275.06
2022-08-05T05:26:48.675Z,72283.06
2022-08-05T05:27:24.744Z,72283.06
2022-08-05T05:28:17.107Z,72283.06
2022-08-05T05:28:49.517Z,72283.06
2022-08-05T05:29:21.906Z,72291.03
2022-08-05T05:30:04.395Z,72287.06
2022-08-05T05:30:37.863Z,72291.03
2022-08-05T05:31:12.879Z,72295.03
2022-08-05T05:31:46.214Z,72291.03
2022-08-05T05:32:18.962Z,72289.03
2022-08-05T05:33:00.177Z,72291.03
2022-08-05T05:33:58.643Z,72291.03
2022-08-05T05:34:28.868Z,72303.03
2022-08-05T05:35:01.320Z,72291.03
2022-08-05T05:35:39.581Z,72297.03
2022-08-05T05:36:14.770Z,72299.03
2022-08-05T05:36:48.524Z,72299.03
2022-08-05T05:37:29.277Z,72295.03
2022-08-05T05:38:27.148Z,72299.03
2022-08-05T05:39:03.774Z,72289.03
2022-08-05T05:39:36.802Z,72297.03
2022-08-05T05:40:11.235Z,72299.03
2022-08-05T05:40:51.107Z,72299.03
2022-08-05T05:41:23.947Z,72293.03
2022-08-05T05:41:59.011Z,72287.06
2022-08-05T05:42:31.406Z,72287.06
2022-08-05T05:43:04.411Z,72287.06
2022-08-05T05:43:56.630Z,72289.03
2022-08-05T05:44:36.390Z,72283.06
2022-08-05T05:45:14.183Z,72283.06
2022-08-05T05:45:48.225Z,72285.06
2022-08-05T05:46:23.569Z,72285.06
2022-08-05T05:46:57.838Z,72287.06
2022-08-05T05:48:07.167Z,72291.03
2022-08-05T05:48:28.303Z,72295.03
2022-08-05T05:49:06.483Z,72291.03
2022-08-05T05:49:56.751Z,72291.03
2022-08-05T05:50:42.541Z,72291.03
2022-08-05T05:51:21.403Z,72287.06
2022-08-05T05:51:56.683Z,72291.03
2022-08-05T05:52:33.058Z,72287.06
2022-08-05T05:53:21.202Z,72291.03
2022-08-05T05:53:58.604Z,72287.06
2022-08-05T05:54:50.289Z,72291.03
2022-08-05T05:55:23.638Z,72287.06
2022-08-05T05:56:25.936Z,72291.03
2022-08-05T05:57:05.996Z,72287.06
2022-08-05T05:57:52.715Z,72289.03
2022-08-05T05:58:32.056Z,72291.03
2022-08-05T05:59:09.661Z,72287.06
2022-08-05T05:59:42.574Z,72291.03
2022-08-05T06:00:17.594Z,72291.03
2022-08-05T06:00:52.598Z,72287.06
2022-08-05T06:01:25.029Z,72291.03
2022-08-05T06:02:12.328Z,72287.06
2022-08-05T06:02:45.876Z,72291.03
2022-08-05T06:03:28.624Z,72295.03
2022-08-05T06:04:16.024Z,72297.03
2022-08-05T06:04:51.148Z,72291.03
2022-08-05T06:05:23.607Z,72287.06
2022-08-05T06:05:56.091Z,72291.03
2022-08-05T06:06:34.669Z,72299.03
2022-08-05T06:07:07.573Z,72293.03
2022-08-05T06:08:01.143Z,72291.03
2022-08-05T06:08:36.825Z,72289.03
2022-08-05T06:09:16.757Z,72291.03
2022-08-05T06:10:02.648Z,72293.03
2022-08-05T06:10:49.126Z,72287.06
2022-08-05T06:11:26.008Z,72287.06
2022-08-05T06:12:02.006Z,72289.03
2022-08-05T06:12:42.131Z,72291.03
2022-08-05T06:13:14.836Z,72291.03
2022-08-05T06:13:53.651Z,72293.03
2022-08-05T06:14:28.023Z,72291.03
2022-08-05T06:15:01.364Z,72293.03
2022-08-05T06:16:30.168Z,72299.03
2022-08-05T06:16:32.814Z,72303.03
2022-08-05T06:17:22.002Z,72307.00
2022-08-05T06:17:56.603Z,72307.00
2022-08-05T06:18:31.889Z,72313.00
2022-08-05T06:19:08.987Z,72311.00
2022-08-05T06:19:56.831Z,72307.00
2022-08-05T06:20:32.091Z,72315.00
2022-08-05T06:21:05.178Z,72311.00
2022-08-05T06:21:49.614Z,72311.00
2022-08-05T06:22:24.060Z,72315.00
2022-08-05T06:22:59.317Z,72315.00
2022-08-05T06:23:44.194Z,72313.00
2022-08-05T06:24:25.624Z,72315.00
2022-08-05T06:24:58.496Z,72313.00
2022-08-05T06:26:13.080Z,72317.00
2022-08-05T06:26:25.994Z,72320.97
2022-08-05T06:27:06.370Z,72320.97
2022-08-05T06:28:11.537Z,72318.97
2022-08-05T06:28:51.448Z,72322.97
2022-08-05T06:29:46.285Z,72324.97
2022-08-05T06:30:21.028Z,72326.97
2022-08-05T06:30:53.827Z,72326.97
2022-08-05T06:31:32.053Z,72326.97
2022-08-05T06:32:21.467Z,72322.97
2022-08-05T06:32:58.900Z,72326.97
2022-08-05T06:34:06.754Z,72318.97
2022-08-05T06:34:26.427Z,72320.97
2022-08-05T06:35:05.971Z,72322.97
2022-08-05T06:36:07.935Z,72322.97
2022-08-05T06:36:58.061Z,72318.97
2022-08-05T06:37:56.505Z,72322.97
2022-08-05T06:38:36.464Z,72324.97
2022-08-05T06:39:09.538Z,72317.00
2022-08-05T06:39:44.645Z,72322.97
2022-08-05T06:40:18.512Z,72324.97
2022-08-05T06:40:53.671Z,72318.97
2022-08-05T06:41:28.670Z,72318.97
2022-08-05T06:42:07.574Z,72322.97
2022-08-05T06:42:40.346Z,72322.97
2022-08-05T06:43:57.714Z,72326.97
2022-08-05T06:44:07.904Z,72328.97
2022-08-05T06:44:43.018Z,72322.97
2022-08-05T06:46:02.983Z,72326.97
2022-08-05T06:46:16.920Z,72336.94
2022-08-05T06:46:50.770Z,72338.94
2022-08-05T06:48:11.727Z,72338.94
2022-08-05T06:48:54.648Z,72340.94
2022-08-05T06:49:10.954Z,72346.94
2022-08-05T06:50:01.297Z,72346.94
2022-08-05T06:50:37.643Z,72350.91
2022-08-05T06:51:12.001Z,72354.91
2022-08-05T06:51:59.123Z,72358.91
2022-08-05T06:52:36.629Z,72358.91
2022-08-05T06:53:22.630Z,72366.88
2022-08-05T06:54:02.371Z,72378.84
2022-08-05T06:54:37.588Z,72374.88
2022-08-05T06:55:10.159Z,72378.84
2022-08-05T06:55:43.231Z,72374.88
2022-08-05T06:56:26.796Z,72378.84
2022-08-05T06:57:57.282Z,72378.84
2022-08-05T06:58:02.724Z,72378.84
2022-08-05T06:58:46.882Z,72374.88
2022-08-05T06:59:19.295Z,72380.84
2022-08-05T06:59:57.938Z,72382.84
2022-08-05T07:00:31.542Z,72382.84
2022-08-05T07:01:05.474Z,72386.84
2022-08-05T07:01:42.357Z,72390.84
2022-08-05T07:02:15.050Z,72382.84
2022-08-05T07:02:48.094Z,72388.84
2022-08-05T07:03:32.762Z,72380.84
2022-08-05T07:04:05.664Z,72388.84
2022-08-05T07:04:40.746Z,72384.84
2022-08-05T07:05:18.517Z,72382.84
2022-08-05T07:05:54.268Z,72390.84
2022-08-05T07:06:32.292Z,72388.84
2022-08-05T07:07:07.947Z,72390.84
2022-08-05T07:07:44.085Z,72390.84
2022-08-05T07:08:19.722Z,72390.84
2022-08-05T07:08:59.095Z,72386.84
2022-08-05T07:09:37.323Z,72394.81
2022-08-05T07:10:14.778Z,72394.81
2022-08-05T07:10:52.779Z,72394.81
2022-08-05T07:11:28.857Z,72394.81
2022-08-05T07:12:01.214Z,72390.84
2022-08-05T07:12:51.177Z,72390.84
2022-08-05T07:13:59.218Z,72394.81
2022-08-05T07:14:46.820Z,72394.81
2022-08-05T07:16:01.995Z,72402.81
2022-08-05T07:18:01.973Z,72406.81
2022-08-05T07:18:02.049Z,72404.81
2022-08-05T07:18:30.864Z,72402.81
2022-08-05T07:19:06.707Z,72406.81
2022-08-05T07:20:37.130Z,72410.78
2022-08-05T07:21:14.031Z,72418.78
2022-08-05T07:22:01.579Z,72412.78
2022-08-05T07:22:35.218Z,72422.75
2022-08-05T07:23:07.698Z,72418.78
2022-08-05T07:23:49.866Z,72416.78
2022-08-05T07:24:24.811Z,72414.78
2022-08-05T07:25:21.891Z,72414.78
2022-08-05T07:25:57.168Z,72414.78
2022-08-05T07:26:29.703Z,72418.78
2022-08-05T07:27:03.786Z,72420.78
2022-08-05T07:27:58.206Z,72418.78
2022-08-05T07:28:35.084Z,72426.75
2022-08-05T07:29:10.454Z,72418.78
2022-08-05T07:30:27.919Z,72418.78
2022-08-05T07:30:40.774Z,72422.75
2022-08-05T07:31:13.181Z,72428.75
2022-08-05T07:31:54.490Z,72426.75
2022-08-05T07:32:30.380Z,72426.75
2022-08-05T07:33:04.997Z,72430.75
2022-08-05T07:33:44.123Z,72430.75
2022-08-05T07:34:16.604Z,72430.75
2022-08-05T07:34:57.750Z,72430.75
2022-08-05T07:36:04.135Z,72430.75
2022-08-05T07:36:28.194Z,72430.75
2022-08-05T07:37:04.987Z,72432.75
2022-08-05T07:37:39.498Z,72434.75
2022-08-05T07:38:33.491Z,72426.75
2022-08-05T07:39:24.857Z,72432.75
2022-08-05T07:40:04.088Z,72438.72
2022-08-05T07:41:01.474Z,72434.75
2022-08-05T07:42:14.569Z,72438.72
2022-08-05T07:42:44.498Z,72438.72
2022-08-05T07:43:20.902Z,72442.72
2022-08-05T07:43:56.227Z,72442.72
2022-08-05T07:44:31.776Z,72442.72
2022-08-05T07:45:09.337Z,72442.72
2022-08-05T07:45:57.236Z,72442.72
2022-08-05T07:46:35.086Z,72436.72
2022-08-05T07:47:07.869Z,72444.72
2022-08-05T07:47:42.779Z,72436.72
2022-08-05T07:49:00.468Z,72440.72
2022-08-05T07:49:14.053Z,72436.72
2022-08-05T07:49:54.428Z,72434.75
2022-08-05T07:50:28.855Z,72446.72
2022-08-05T07:51:23.492Z,72440.72
2022-08-05T07:52:04.302Z,72436.72
2022-08-05T07:52:41.751Z,72434.75
2022-08-05T07:53:16.639Z,72434.75
2022-08-05T07:53:50.843Z,72442.72
2022-08-05T07:54:31.536Z,72438.72
2022-08-05T07:55:16.108Z,72438.72
2022-08-05T07:56:05.813Z,72440.72
2022-08-05T07:57:02.527Z,72440.72
2022-08-05T07:57:58.977Z,72450.72
2022-08-05T07:58:57.766Z,72446.72